Time;durP1;ratioP1;P1;durP2;ratioP2;P2;SDS_P1;SDS_P2;PMS_P1;PMS_P2;Temp;Humidity;BMP_temperature;BMP_pressure;BME280_temperature;BME280_humidity;BME280_pressure;Samples;Min_cycle;Max_cycle;Signal;HPM_P1;HPM_P2
2022/03/28 00:00:21;;;;;;;10.13;5.80;;;8.10;63.60;;;;;;5052213;28;20164;-73
2022/03/28 00:02:47;;;;;;;7.35;5.32;;;8.10;63.10;;;;;;5043931;28;20124;-73
2022/03/28 00:05:13;;;;;;;8.75;5.68;;;7.90;63.80;;;;;;5056687;28;20551;-72
2022/03/28 00:07:40;;;;;;;10.02;4.72;;;7.60;63.70;;;;;;5053866;28;20172;-73
2022/03/28 00:10:07;;;;;;;6.47;4.60;;;7.40;65.20;;;;;;5046167;28;20176;-73
2022/03/28 00:12:33;;;;;;;8.40;4.95;;;7.20;65.30;;;;;;5048022;28;20044;-72
2022/03/28 00:14:59;;;;;;;7.25;5.15;;;7.10;65.90;;;;;;5048800;28;20044;-73
2022/03/28 00:17:25;;;;;;;6.03;5.05;;;7.00;66.30;;;;;;5047817;28;20040;-72
2022/03/28 00:19:50;;;;;;;5.25;4.38;;;7.00;66.60;;;;;;5055254;28;20025;-73
2022/03/28 00:22:16;;;;;;;8.90;5.20;;;6.90;66.00;;;;;;5049168;28;20044;-73
2022/03/28 00:24:42;;;;;;;8.52;5.28;;;6.80;67.00;;;;;;5052952;28;20102;-73
2022/03/28 00:27:07;;;;;;;7.60;5.72;;;6.80;67.10;;;;;;5050491;28;20397;-73
2022/03/28 00:29:33;;;;;;;10.93;6.32;;;6.90;67.00;;;;;;5057848;28;20047;-73
2022/03/28 00:31:59;;;;;;;9.57;5.47;;;7.10;66.40;;;;;;5058514;28;20068;-73
2022/03/28 00:34:24;;;;;;;8.95;4.63;;;7.20;66.30;;;;;;5040481;28;20048;-73
2022/03/28 00:36:50;;;;;;;7.32;4.72;;;7.10;66.10;;;;;;5047772;28;20035;-73
2022/03/28 00:39:19;;;;;;;8.50;5.63;;;7.00;66.50;;;;;;5052380;28;20031;-73
2022/03/28 00:41:49;;;;;;;13.73;6.13;;;7.00;66.80;;;;;;5050462;28;20025;-73
2022/03/28 00:44:14;;;;;;;8.02;5.35;;;7.10;66.80;;;;;;5049894;28;20028;-73
2022/03/28 00:46:40;;;;;;;7.32;5.47;;;7.10;66.50;;;;;;5054938;28;20086;-73
2022/03/28 00:49:07;;;;;;;8.48;6.30;;;7.20;66.30;;;;;;5037684;28;20045;-73
2022/03/28 00:51:33;;;;;;;13.48;6.07;;;7.20;66.40;;;;;;5050998;28;20053;-73
2022/03/28 00:53:59;;;;;;;6.43;4.78;;;7.20;66.30;;;;;;5051293;28;20105;-73
2022/03/28 00:56:25;;;;;;;8.52;6.00;;;7.00;65.70;;;;;;5051393;28;20045;-73
2022/03/28 00:58:51;;;;;;;7.25;5.28;;;6.90;66.70;;;;;;5056169;28;20102;-73
2022/03/28 01:01:17;;;;;;;10.07;6.38;;;6.80;65.40;;;;;;5052801;28;20040;-73
2022/03/28 01:03:43;;;;;;;7.70;5.82;;;6.70;67.60;;;;;;5052392;28;20041;-73
2022/03/28 01:06:09;;;;;;;9.55;6.38;;;6.80;68.10;;;;;;5036823;28;20052;-73
2022/03/28 01:08:35;;;;;;;7.72;5.57;;;6.80;68.50;;;;;;5048623;28;20025;-72
2022/03/28 01:11:09;;;;;;;9.32;5.88;;;6.80;67.90;;;;;;5042309;28;20109;-73
2022/03/28 01:13:37;;;;;;;10.23;5.72;;;6.60;67.80;;;;;;5049184;28;20043;-73
2022/03/28 01:16:04;;;;;;;8.68;5.82;;;6.50;68.40;;;;;;5049882;28;20033;-73
2022/03/28 01:18:30;;;;;;;10.02;6.97;;;6.50;68.90;;;;;;5046359;28;20068;-73
2022/03/28 01:20:57;;;;;;;8.52;6.32;;;6.60;69.20;;;;;;5040880;28;20048;-73
2022/03/28 01:23:23;;;;;;;14.00;6.70;;;6.70;69.10;;;;;;5047647;28;20046;-73
2022/03/28 01:25:53;;;;;;;12.05;6.03;;;6.80;69.00;;;;;;5045315;28;20036;-73
2022/03/28 01:28:24;;;;;;;9.43;6.60;;;6.80;68.70;;;;;;5045628;28;20412;-73
2022/03/28 01:30:50;;;;;;;7.45;4.88;;;6.70;69.10;;;;;;5044156;28;20155;-73
2022/03/28 01:33:16;;;;;;;5.53;4.68;;;6.60;67.20;;;;;;5047341;28;20042;-73
2022/03/28 01:35:46;;;;;;;10.52;5.72;;;6.30;67.20;;;;;;5053367;28;20907;-73
2022/03/28 01:38:14;;;;;;;9.27;6.28;;;6.10;68.60;;;;;;5062627;28;20115;-73
2022/03/28 01:40:45;;;;;;;12.50;7.25;;;6.10;70.40;;;;;;5053769;28;20038;-73
2022/03/28 01:43:12;;;;;;;10.50;7.25;;;6.20;70.70;;;;;;5059301;28;20131;-73
2022/03/28 01:45:38;;;;;;;10.38;7.30;;;6.40;70.80;;;;;;5057381;28;20123;-73
2022/03/28 01:48:06;;;;;;;11.77;7.07;;;6.50;70.50;;;;;;5050363;28;20051;-72
2022/03/28 01:50:32;;;;;;;7.43;5.55;;;6.60;70.40;;;;;;5046282;28;20460;-73
2022/03/28 01:52:59;;;;;;;6.35;4.78;;;6.50;68.20;;;;;;5049147;28;20545;-73
2022/03/28 01:55:25;;;;;;;9.73;5.22;;;6.20;67.00;;;;;;5048164;28;20716;-73
2022/03/28 01:57:51;;;;;;;7.80;5.32;;;5.90;68.20;;;;;;5047117;28;20079;-73
2022/03/28 02:00:19;;;;;;;6.38;4.93;;;5.40;69.20;;;;;;5048576;28;20048;-73
2022/03/28 02:02:48;;;;;;;7.38;5.22;;;5.10;67.60;;;;;;5052832;28;20036;-73
2022/03/28 02:05:15;;;;;;;7.80;5.00;;;4.80;68.30;;;;;;5054793;28;20087;-73
2022/03/28 02:07:43;;;;;;;8.25;4.85;;;4.50;70.10;;;;;;5055950;28;20048;-73
2022/03/28 02:10:11;;;;;;;6.57;4.88;;;4.30;70.70;;;;;;5052823;28;20037;-73
2022/03/28 02:12:37;;;;;;;6.55;4.68;;;4.30;71.20;;;;;;5050613;28;20412;-73
2022/03/28 02:15:06;;;;;;;8.50;5.45;;;4.40;70.70;;;;;;5053290;28;20061;-73
2022/03/28 02:17:32;;;;;;;11.07;6.45;;;4.40;71.50;;;;;;5054439;28;20069;-73
2022/03/28 02:19:58;;;;;;;8.35;6.60;;;4.50;71.90;;;;;;5051136;28;20561;-73
2022/03/28 02:22:24;;;;;;;12.75;6.03;;;4.60;72.90;;;;;;5050768;28;20044;-73
2022/03/28 02:24:50;;;;;;;6.60;5.47;;;4.60;72.20;;;;;;5052071;28;20440;-73
2022/03/28 02:27:15;;;;;;;12.55;5.47;;;4.40;72.20;;;;;;5034352;28;20037;-73
2022/03/28 02:29:41;;;;;;;7.55;4.88;;;4.30;72.30;;;;;;5046201;28;20516;-73
2022/03/28 02:32:07;;;;;;;10.65;5.85;;;4.20;71.70;;;;;;5051506;28;20094;-73
2022/03/28 02:34:33;;;;;;;10.48;6.20;;;4.10;71.90;;;;;;5048785;28;20029;-73
2022/03/28 02:36:59;;;;;;;8.70;5.88;;;4.00;73.70;;;;;;5048740;28;20041;-73
2022/03/28 02:39:25;;;;;;;12.00;6.15;;;3.80;75.30;;;;;;5053048;28;20120;-73
2022/03/28 02:41:52;;;;;;;9.43;6.68;;;3.70;75.70;;;;;;5053878;28;20048;-73
2022/03/28 02:44:18;;;;;;;9.10;6.65;;;3.80;76.30;;;;;;5039962;28;20053;-73
2022/03/28 02:46:47;;;;;;;9.82;6.53;;;3.80;76.80;;;;;;5051604;28;20702;-73
2022/03/28 02:49:13;;;;;;;10.85;6.30;;;3.90;76.50;;;;;;5055901;28;20375;-73
2022/03/28 02:51:39;;;;;;;12.05;6.18;;;3.90;76.90;;;;;;5052320;28;20045;-73
2022/03/28 02:54:06;;;;;;;11.38;6.47;;;3.90;77.00;;;;;;5048048;28;20044;-73
2022/03/28 02:56:32;;;;;;;10.52;7.00;;;4.10;76.80;;;;;;5055331;28;20048;-73
2022/03/28 02:58:58;;;;;;;9.43;5.90;;;4.30;76.00;;;;;;5052782;28;20047;-73
2022/03/28 03:01:24;;;;;;;10.32;6.05;;;4.40;75.30;;;;;;5052356;28;20600;-73
2022/03/28 03:03:50;;;;;;;7.47;4.85;;;4.40;74.80;;;;;;5063592;28;20114;-74
2022/03/28 03:06:16;;;;;;;17.67;5.70;;;4.20;73.00;;;;;;5039815;28;20493;-73
2022/03/28 03:08:42;;;;;;;7.93;5.70;;;3.90;73.80;;;;;;5037964;28;20122;-73
2022/03/28 03:11:09;;;;;;;7.38;5.72;;;3.70;75.10;;;;;;5060418;28;20123;-73
2022/03/28 03:13:35;;;;;;;7.32;5.53;;;3.60;76.10;;;;;;5052966;28;20509;-73
2022/03/28 03:16:01;;;;;;;7.68;5.50;;;3.50;77.20;;;;;;5051539;28;20680;-73
2022/03/28 03:18:27;;;;;;;7.63;5.68;;;3.40;77.50;;;;;;5057810;28;20049;-73
2022/03/28 03:20:52;;;;;;;8.93;5.85;;;3.50;78.10;;;;;;5054451;28;20041;-73
2022/03/28 03:23:18;;;;;;;13.45;5.55;;;3.50;78.10;;;;;;5058612;28;20273;-73
2022/03/28 03:25:44;;;;;;;11.23;6.35;;;3.60;78.50;;;;;;5040254;28;20044;-73
2022/03/28 03:28:09;;;;;;;8.80;5.47;;;3.70;78.50;;;;;;5055200;28;20055;-73
2022/03/28 03:30:35;;;;;;;8.15;5.80;;;3.70;78.80;;;;;;5034878;28;20033;-73
2022/03/28 03:33:01;;;;;;;8.50;6.22;;;3.70;79.00;;;;;;5053010;28;20047;-73
2022/03/28 03:35:26;;;;;;;8.88;6.13;;;3.70;78.50;;;;;;5060170;28;22660;-73
2022/03/28 03:37:52;;;;;;;7.30;5.68;;;3.70;77.70;;;;;;5060755;28;20567;-73
2022/03/28 03:40:18;;;;;;;11.57;6.25;;;3.50;77.50;;;;;;5059099;28;20059;-73
2022/03/28 03:42:44;;;;;;;10.90;7.22;;;3.50;78.40;;;;;;5055571;28;20498;-73
2022/03/28 03:45:10;;;;;;;129.30;66.38;;;3.50;79.10;;;;;;5057183;28;20037;-73
2022/03/28 03:47:36;;;;;;;69.78;39.85;;;3.50;78.90;;;;;;5050245;28;20526;-73
2022/03/28 03:50:04;;;;;;;153.75;85.55;;;3.70;78.50;;;;;;5053714;28;20052;-73
2022/03/28 03:52:30;;;;;;;79.93;46.88;;;4.00;78.10;;;;;;5054511;28;20474;-73
2022/03/28 03:54:56;;;;;;;64.75;35.15;;;3.90;77.80;;;;;;5058635;28;20055;-73
2022/03/28 03:57:22;;;;;;;26.20;14.85;;;3.80;77.90;;;;;;5045423;28;20136;-73
2022/03/28 03:59:47;;;;;;;12.15;8.50;;;3.60;77.50;;;;;;5052084;28;20043;-73
2022/03/28 04:02:13;;;;;;;10.65;7.65;;;3.40;76.60;;;;;;5046033;28;20068;-73
2022/03/28 04:04:39;;;;;;;11.63;6.93;;;3.20;78.00;;;;;;5051706;28;20076;-73
2022/03/28 04:07:04;;;;;;;11.55;6.38;;;3.10;78.80;;;;;;5034143;28;20503;-73
2022/03/28 04:09:30;;;;;;;10.75;6.28;;;3.10;79.40;;;;;;5054008;28;20490;-72
2022/03/28 04:11:57;;;;;;;20.80;16.65;;;3.10;79.20;;;;;;5055728;28;20052;-73
2022/03/28 04:14:23;;;;;;;23.10;16.08;;;3.20;79.40;;;;;;5050226;28;20596;-73
2022/03/28 04:16:48;;;;;;;8.88;6.60;;;3.40;80.60;;;;;;5050934;28;20036;-73
2022/03/28 04:19:14;;;;;;;8.13;6.10;;;3.40;78.70;;;;;;5053649;28;20029;-73
2022/03/28 04:21:40;;;;;;;14.02;9.65;;;3.30;76.90;;;;;;5051143;28;20037;-73
2022/03/28 04:24:06;;;;;;;11.43;6.10;;;3.10;78.70;;;;;;5057265;28;20075;-73
2022/03/28 04:26:32;;;;;;;11.82;4.72;;;3.00;78.60;;;;;;5049979;28;20032;-73
2022/03/28 04:28:57;;;;;;;10.60;6.07;;;2.90;78.90;;;;;;5055078;28;20032;-73
2022/03/28 04:31:23;;;;;;;7.68;4.60;;;2.80;78.80;;;;;;5055630;28;20080;-73
2022/03/28 04:33:49;;;;;;;11.48;6.53;;;2.70;79.40;;;;;;5049816;28;20143;-73
2022/03/28 04:36:14;;;;;;;8.35;5.03;;;2.70;79.70;;;;;;5050845;28;20048;-73
2022/03/28 04:38:40;;;;;;;8.20;5.22;;;2.70;80.30;;;;;;5050276;28;20061;-73
2022/03/28 04:41:06;;;;;;;7.63;5.53;;;2.60;80.40;;;;;;5055905;28;20125;-73
2022/03/28 04:43:31;;;;;;;7.93;4.80;;;2.60;81.20;;;;;;5056380;28;20489;-73
2022/03/28 04:45:57;;;;;;;5.70;4.65;;;2.70;80.40;;;;;;5055150;28;20432;-73
2022/03/28 04:48:23;;;;;;;14.38;7.47;;;2.60;80.70;;;;;;5056268;28;20382;-73
2022/03/28 04:50:49;;;;;;;12.23;5.68;;;2.60;81.40;;;;;;5049470;28;20614;-73
2022/03/28 04:53:17;;;;;;;14.57;5.80;;;2.60;82.80;;;;;;5045427;28;20045;-73
2022/03/28 04:55:42;;;;;;;13.32;8.32;;;2.70;81.60;;;;;;5050695;28;20033;-72
2022/03/28 04:58:08;;;;;;;10.48;6.20;;;2.80;82.20;;;;;;5030635;28;20048;-73
2022/03/28 05:00:34;;;;;;;11.75;6.10;;;2.90;82.70;;;;;;5051528;28;20044;-73
2022/03/28 05:02:59;;;;;;;15.23;7.35;;;2.90;83.00;;;;;;5054420;28;20127;-74
2022/03/28 05:05:25;;;;;;;21.30;7.65;;;3.00;83.20;;;;;;5047425;28;20086;-73
2022/03/28 05:07:51;;;;;;;14.57;7.10;;;3.20;84.00;;;;;;5060885;28;20070;-73
2022/03/28 05:10:16;;;;;;;11.80;6.93;;;3.30;83.10;;;;;;5050538;28;20520;-73
2022/03/28 05:12:43;;;;;;;10.80;6.38;;;3.30;82.40;;;;;;5048051;28;20057;-74
2022/03/28 05:15:09;;;;;;;10.52;6.30;;;3.30;82.20;;;;;;5050198;28;20055;-74
2022/03/28 05:17:36;;;;;;;12.77;6.60;;;3.30;82.70;;;;;;5052786;28;20044;-74
2022/03/28 05:20:02;;;;;;;11.00;7.10;;;3.30;83.30;;;;;;5051683;28;20171;-74
2022/03/28 05:22:28;;;;;;;15.32;6.32;;;3.30;82.70;;;;;;5035108;28;20066;-74
2022/03/28 05:24:55;;;;;;;9.77;5.07;;;3.30;82.30;;;;;;5051417;28;20044;-74
2022/03/28 05:27:21;;;;;;;9.45;5.78;;;3.20;82.00;;;;;;5058352;28;20101;-74
2022/03/28 05:29:47;;;;;;;13.93;7.50;;;3.30;83.10;;;;;;5047380;28;20048;-74
2022/03/28 05:32:13;;;;;;;26.80;11.98;;;3.40;83.20;;;;;;5044878;28;20605;-74
2022/03/28 05:34:40;;;;;;;29.52;16.15;;;3.50;83.40;;;;;;5047230;28;20040;-74
2022/03/28 05:37:09;;;;;;;21.63;12.80;;;3.50;83.70;;;;;;5054896;28;20562;-74
2022/03/28 05:39:36;;;;;;;21.80;10.35;;;3.60;84.10;;;;;;5051325;28;20045;-73
2022/03/28 05:42:03;;;;;;;19.73;11.07;;;3.70;83.20;;;;;;5049638;28;20041;-74
2022/03/28 05:44:29;;;;;;;21.00;12.30;;;3.70;83.50;;;;;;5048958;28;20056;-74
2022/03/28 05:46:55;;;;;;;24.20;12.07;;;3.90;84.10;;;;;;5052040;28;20037;-74
2022/03/28 05:49:22;;;;;;;28.02;14.65;;;4.10;84.30;;;;;;5049191;28;20037;-73
2022/03/28 05:51:48;;;;;;;30.80;15.82;;;4.30;83.40;;;;;;5053776;28;20045;-73
2022/03/28 05:54:15;;;;;;;45.03;21.48;;;4.60;83.40;;;;;;5039918;28;20040;-73
2022/03/28 05:56:40;;;;;;;30.10;18.08;;;5.00;81.90;;;;;;5050599;28;20450;-74
2022/03/28 05:59:09;;;;;;;32.10;17.55;;;5.30;81.50;;;;;;5052673;28;20136;-74
2022/03/28 06:01:36;;;;;;;20.88;11.77;;;5.50;80.80;;;;;;5047603;28;20041;-74
2022/03/28 06:04:02;;;;;;;19.20;9.18;;;5.60;81.20;;;;;;5041952;28;20040;-74
2022/03/28 06:06:29;;;;;;;16.67;9.82;;;5.50;82.40;;;;;;5052370;28;20114;-74
2022/03/28 06:08:56;;;;;;;21.67;9.27;;;5.50;83.30;;;;;;5054698;28;20527;-75
2022/03/28 06:11:22;;;;;;;14.75;8.95;;;5.70;82.40;;;;;;5059929;28;20040;-75
2022/03/28 06:13:47;;;;;;;16.25;8.60;;;5.90;83.00;;;;;;5054781;28;20416;-74
2022/03/28 06:16:13;;;;;;;24.13;8.73;;;6.10;82.60;;;;;;5057279;28;20032;-75
2022/03/28 06:18:39;;;;;;;14.13;7.32;;;6.30;81.80;;;;;;5051410;28;20133;-74
2022/03/28 06:21:07;;;;;;;10.63;7.25;;;6.50;81.30;;;;;;5060432;28;20044;-75
2022/03/28 06:23:36;;;;;;;10.70;7.55;;;6.80;81.50;;;;;;5067207;28;20044;-75
2022/03/28 06:26:03;;;;;;;9.60;7.28;;;6.90;79.80;;;;;;5058456;28;20044;-74
2022/03/28 06:28:29;;;;;;;10.32;7.10;;;7.10;79.60;;;;;;5056876;28;20070;-77
2022/03/28 06:30:55;;;;;;;9.85;6.90;;;7.30;78.20;;;;;;5057172;28;20197;-74
2022/03/28 06:33:21;;;;;;;14.00;7.47;;;7.30;77.80;;;;;;5056029;28;20556;-74
2022/03/28 06:35:47;;;;;;;14.35;6.90;;;7.40;77.00;;;;;;5057691;28;20115;-80
2022/03/28 06:38:13;;;;;;;9.93;6.80;;;7.30;77.80;;;;;;5054184;28;20063;-74
2022/03/28 06:40:39;;;;;;;9.98;7.28;;;7.40;78.80;;;;;;5063508;28;20044;-74
2022/03/28 06:43:05;;;;;;;9.95;7.60;;;7.50;79.60;;;;;;5057744;28;20695;-73
2022/03/28 06:45:31;;;;;;;9.88;7.32;;;7.80;80.40;;;;;;5058880;28;20113;-74
2022/03/28 06:47:58;;;;;;;11.00;7.07;;;8.10;79.10;;;;;;5050896;28;20048;-74
2022/03/28 06:50:25;;;;;;;10.35;6.63;;;8.30;77.60;;;;;;5047557;28;20123;-76
2022/03/28 06:52:51;;;;;;;9.75;5.75;;;8.60;75.40;;;;;;5049551;28;20055;-75
2022/03/28 06:55:17;;;;;;;8.57;6.10;;;8.80;71.40;;;;;;5056492;28;20036;-74
2022/03/28 06:57:44;;;;;;;11.10;6.50;;;9.00;69.20;;;;;;5055249;28;20749;-73
2022/03/28 07:00:10;;;;;;;7.22;5.32;;;9.10;66.50;;;;;;5053845;28;20098;-74
2022/03/28 07:02:37;;;;;;;11.05;5.95;;;9.40;65.80;;;;;;5050992;28;20041;-74
2022/03/28 07:05:08;;;;;;;10.50;5.57;;;9.60;64.30;;;;;;5056064;28;20090;-74
2022/03/28 07:07:44;;;;;;;7.22;5.07;;;9.80;63.10;;;;;;5050784;28;22143;-73
2022/03/28 07:10:11;;;;;;;7.78;5.55;;;9.90;62.70;;;;;;5052069;28;20045;-74
2022/03/28 07:12:38;;;;;;;9.32;5.43;;;10.10;61.50;;;;;;5057867;28;20055;-74
2022/03/28 07:15:05;;;;;;;10.68;5.55;;;10.20;59.00;;;;;;5047823;28;20028;-73
2022/03/28 07:17:33;;;;;;;8.80;4.80;;;10.30;58.30;;;;;;5050680;28;20072;-73
2022/03/28 07:19:59;;;;;;;15.27;5.47;;;10.30;57.20;;;;;;5044599;28;20029;-76
2022/03/28 07:22:25;;;;;;;8.32;4.93;;;10.20;57.00;;;;;;5052943;28;20049;-76
2022/03/28 07:24:51;;;;;;;6.55;4.78;;;10.20;55.30;;;;;;5054254;28;20037;-75
2022/03/28 07:27:17;;;;;;;13.55;4.95;;;10.20;55.80;;;;;;5050364;28;20052;-74
2022/03/28 07:29:43;;;;;;;7.45;4.25;;;10.40;55.20;;;;;;5052857;28;20037;-74
2022/03/28 07:32:09;;;;;;;10.13;4.20;;;10.40;53.30;;;;;;5055095;28;20087;-75
2022/03/28 07:34:35;;;;;;;6.45;4.65;;;10.30;52.00;;;;;;5054991;28;20119;-74
2022/03/28 07:37:05;;;;;;;6.55;4.68;;;10.30;52.30;;;;;;5055103;28;20045;-74
2022/03/28 07:39:34;;;;;;;5.90;4.03;;;10.30;52.10;;;;;;5061776;28;20041;-75
2022/03/28 07:42:01;;;;;;;8.98;4.65;;;10.40;52.10;;;;;;5053999;28;20115;-75
2022/03/28 07:44:26;;;;;;;8.82;4.65;;;10.60;52.10;;;;;;5053950;28;20034;-75
2022/03/28 07:46:52;;;;;;;7.63;4.32;;;10.70;50.80;;;;;;5048675;28;20043;-75
2022/03/28 07:49:18;;;;;;;8.18;4.88;;;10.80;51.50;;;;;;5058747;28;20043;-74
2022/03/28 07:51:45;;;;;;;9.75;4.57;;;11.00;52.10;;;;;;5053336;28;20480;-76
2022/03/28 07:54:11;;;;;;;6.07;4.18;;;11.20;51.20;;;;;;5059285;28;20033;-75
2022/03/28 07:56:37;;;;;;;5.85;4.70;;;11.50;50.70;;;;;;5049913;28;20025;-74
2022/03/28 07:59:03;;;;;;;12.63;5.18;;;11.70;51.60;;;;;;5040729;28;20043;-75
2022/03/28 08:01:29;;;;;;;10.10;5.20;;;11.90;51.00;;;;;;5054112;28;20421;-76
2022/03/28 08:03:54;;;;;;;10.07;5.05;;;12.00;50.20;;;;;;5058142;28;20451;-78
2022/03/28 08:06:21;;;;;;;8.90;5.25;;;12.10;50.20;;;;;;5056675;28;20603;-80
2022/03/28 08:08:47;;;;;;;9.10;5.30;;;12.30;49.80;;;;;;5059237;28;20048;-77
2022/03/28 08:11:13;;;;;;;6.22;4.55;;;12.50;49.50;;;;;;5056466;28;20393;-77
2022/03/28 08:13:38;;;;;;;10.52;4.90;;;12.60;49.30;;;;;;5060249;28;20036;-80
2022/03/28 08:16:04;;;;;;;8.38;4.47;;;12.80;48.60;;;;;;5057529;28;20033;-78
2022/03/28 08:18:30;;;;;;;10.75;5.03;;;12.90;48.50;;;;;;5064655;28;20544;-79
2022/03/28 08:20:56;;;;;;;22.45;5.70;;;13.00;48.00;;;;;;5067734;28;20032;-82
2022/03/28 08:23:22;;;;;;;8.18;5.07;;;13.00;47.30;;;;;;5058934;28;20036;-77
2022/03/28 08:25:49;;;;;;;8.23;4.50;;;13.00;47.40;;;;;;5056852;28;20037;-83
2022/03/28 08:28:15;;;;;;;9.18;4.80;;;13.10;48.40;;;;;;5051705;28;20037;-81
2022/03/28 08:30:41;;;;;;;8.95;4.93;;;13.30;48.30;;;;;;5059808;28;20039;-78
2022/03/28 08:33:07;;;;;;;11.88;5.03;;;13.50;47.30;;;;;;5056405;28;20140;-79
2022/03/28 08:35:33;;;;;;;6.82;4.70;;;13.60;47.40;;;;;;5041633;28;20465;-74
2022/03/28 08:37:59;;;;;;;8.95;4.85;;;13.70;46.60;;;;;;5033409;28;20048;-75
2022/03/28 08:40:26;;;;;;;10.02;5.15;;;13.90;46.70;;;;;;5054491;28;20060;-75
2022/03/28 08:42:54;;;;;;;9.20;5.10;;;14.00;46.20;;;;;;5057064;28;20151;-75
2022/03/28 08:45:19;;;;;;;6.43;4.85;;;14.20;46.80;;;;;;5048875;28;20368;-75
2022/03/28 08:47:49;;;;;;;11.30;5.35;;;14.30;45.80;;;;;;5046701;28;20106;-75
2022/03/28 08:50:16;;;;;;;12.55;4.88;;;14.40;45.50;;;;;;5050796;28;20028;-75
2022/03/28 08:52:42;;;;;;;7.97;4.80;;;14.50;45.80;;;;;;5053835;28;20106;-75
2022/03/28 08:55:12;;;;;;;6.18;4.72;;;14.70;45.50;;;;;;5054578;28;20122;-74
2022/03/28 08:57:38;;;;;;;6.95;4.50;;;14.80;44.70;;;;;;5054557;28;20055;-73
2022/03/28 09:00:08;;;;;;;7.05;4.55;;;14.90;44.90;;;;;;5049134;28;20039;-74
2022/03/28 09:02:45;;;;;;;13.40;4.82;;;15.00;44.50;;;;;;5049608;28;20102;-74
2022/03/28 09:05:12;;;;;;;13.63;4.75;;;15.10;43.90;;;;;;5054716;28;20057;-73
2022/03/28 09:07:38;;;;;;;7.07;4.28;;;15.20;44.70;;;;;;5052002;28;20155;-74
2022/03/28 09:10:07;;;;;;;9.63;5.35;;;15.40;43.50;;;;;;5053020;28;20036;-74
2022/03/28 09:12:40;;;;;;;8.18;4.40;;;15.40;43.70;;;;;;5053133;28;20041;-73
2022/03/28 09:15:09;;;;;;;10.25;4.28;;;15.50;43.40;;;;;;5030631;28;20086;-74
2022/03/28 09:17:39;;;;;;;7.68;4.68;;;15.50;43.30;;;;;;5064691;28;20565;-74
2022/03/28 09:20:05;;;;;;;8.68;4.50;;;15.70;44.00;;;;;;5055182;28;20029;-73
2022/03/28 09:22:36;;;;;;;10.68;4.70;;;15.90;43.30;;;;;;5049880;28;20410;-74
2022/03/28 09:25:04;;;;;;;6.73;4.60;;;16.00;42.30;;;;;;5051674;28;20064;-74
2022/03/28 09:27:34;;;;;;;5.20;4.22;;;16.10;43.20;;;;;;5049337;28;20282;-74
2022/03/28 09:30:07;;;;;;;8.73;4.82;;;16.20;42.60;;;;;;5051860;28;20135;-73
2022/03/28 09:32:42;;;;;;;7.45;4.63;;;16.20;42.30;;;;;;5055646;28;20076;-73
2022/03/28 09:35:22;;;;;;;7.55;4.63;;;16.30;42.00;;;;;;5056760;28;20036;-74
2022/03/28 09:38:02;;;;;;;7.78;4.80;;;16.40;41.80;;;;;;5051540;28;20056;-74
2022/03/28 09:40:29;;;;;;;10.23;5.15;;;16.50;42.40;;;;;;5060630;28;20043;-73
2022/03/28 09:42:56;;;;;;;7.53;4.32;;;16.60;42.10;;;;;;5062437;28;20035;-74
2022/03/28 09:45:25;;;;;;;9.00;4.68;;;16.70;41.90;;;;;;5071605;28;20033;-73
2022/03/28 09:47:56;;;;;;;11.93;4.65;;;16.70;41.70;;;;;;5067117;28;20036;-73
2022/03/28 09:50:33;;;;;;;11.82;7.60;;;16.80;42.60;;;;;;5061605;28;20112;-73
2022/03/28 09:53:15;;;;;;;20.85;10.80;;;17.00;41.80;;;;;;5062749;28;20183;-73
2022/03/28 09:55:46;;;;;;;8.23;4.93;;;17.10;40.80;;;;;;5067374;28;20025;-73
2022/03/28 09:58:45;;;;;;;7.15;4.38;;;17.10;41.60;;;;;;5060835;28;20039;-73
2022/03/28 10:01:35;;;;;;;8.10;4.13;;;17.20;42.00;;;;;;5055033;28;20056;-72
2022/03/28 10:04:10;;;;;;;7.50;5.03;;;17.40;41.70;;;;;;5071024;28;20071;-73
2022/03/28 10:06:38;;;;;;;11.07;4.50;;;17.30;42.20;;;;;;5062933;28;20041;-72
2022/03/28 10:09:05;;;;;;;7.40;4.40;;;17.40;42.00;;;;;;5068776;28;20094;-73
2022/03/28 10:11:31;;;;;;;5.78;4.25;;;17.50;42.10;;;;;;5067058;28;20040;-73
2022/03/28 10:13:58;;;;;;;6.78;4.40;;;17.60;42.10;;;;;;5066350;28;20032;-72
2022/03/28 10:16:25;;;;;;;8.05;4.55;;;17.60;42.80;;;;;;5044692;28;20071;-72
2022/03/28 10:18:51;;;;;;;7.00;4.85;;;17.80;42.30;;;;;;5054104;28;20082;-72
2022/03/28 10:21:25;;;;;;;6.93;4.78;;;17.90;42.40;;;;;;5059002;28;20112;-72
2022/03/28 10:24:04;;;;;;;8.20;5.20;;;18.00;42.20;;;;;;5060595;28;20048;-72
2022/03/28 10:26:40;;;;;;;13.73;5.85;;;18.00;42.40;;;;;;5037518;28;20592;-72
2022/03/28 10:29:15;;;;;;;7.15;4.82;;;18.00;42.60;;;;;;5053640;28;20268;-72
2022/03/28 10:31:58;;;;;;;7.47;4.75;;;17.90;43.00;;;;;;5058718;28;20056;-72
2022/03/28 10:34:52;;;;;;;10.13;4.63;;;17.90;44.20;;;;;;5038716;28;20028;-73
2022/03/28 10:37:36;;;;;;;8.77;4.75;;;18.10;43.90;;;;;;5056981;28;20043;-73
2022/03/28 10:40:27;;;;;;;9.57;5.57;;;18.20;43.80;;;;;;5052169;28;20095;-73
2022/03/28 10:43:04;;;;;;;8.50;4.40;;;18.10;44.40;;;;;;5060715;28;20119;-72
2022/03/28 10:45:32;;;;;;;5.85;4.88;;;18.30;45.00;;;;;;5058047;28;20040;-73
2022/03/28 10:47:59;;;;;;;5.70;5.00;;;18.40;44.50;;;;;;5054003;28;20043;-73
2022/03/28 10:50:29;;;;;;;8.95;4.50;;;18.50;45.30;;;;;;5056676;28;20048;-73
2022/03/28 10:53:10;;;;;;;4.90;4.35;;;18.60;44.40;;;;;;5058202;28;20037;-73
2022/03/28 10:55:51;;;;;;;8.48;4.65;;;18.50;45.00;;;;;;5051742;28;20436;-72
2022/03/28 10:58:24;;;;;;;10.15;4.35;;;18.60;45.40;;;;;;5052345;28;20501;-73
2022/03/28 11:01:13;;;;;;;6.90;4.07;;;18.80;46.20;;;;;;5055665;28;20066;-73
2022/03/28 11:03:46;;;;;;;5.75;4.68;;;18.90;46.80;;;;;;5049693;28;20413;-72
2022/03/28 11:06:13;;;;;;;9.50;4.90;;;18.90;44.30;;;;;;5051636;28;20039;-72
2022/03/28 11:08:46;;;;;;;6.95;4.28;;;18.90;44.80;;;;;;5038128;28;20093;-72
2022/03/28 11:11:20;;;;;;;7.60;4.18;;;19.00;46.60;;;;;;5053175;28;20151;-72
2022/03/28 11:14:10;;;;;;;5.30;4.18;;;19.10;48.30;;;;;;5048610;28;20643;-73
2022/03/28 11:16:54;;;;;;;5.18;3.75;;;19.10;47.60;;;;;;5054601;28;20044;-73
2022/03/28 11:19:33;;;;;;;6.00;3.70;;;19.20;47.00;;;;;;5055292;28;20044;-72
2022/03/28 11:22:04;;;;;;;4.85;4.32;;;19.10;45.80;;;;;;5053477;28;20044;-72
2022/03/28 11:24:58;;;;;;;5.88;4.15;;;18.90;45.80;;;;;;5053450;28;20532;-72
2022/03/28 11:27:32;;;;;;;4.50;3.90;;;18.90;46.50;;;;;;5062576;28;20028;-72
2022/03/28 11:30:10;;;;;;;4.80;3.58;;;18.90;47.60;;;;;;5056754;28;20032;-72
2022/03/28 11:32:36;;;;;;;5.80;4.20;;;19.00;46.10;;;;;;5051696;28;20959;-69
2022/03/28 11:35:05;;;;;;;6.60;4.57;;;19.10;47.00;;;;;;5049112;28;20037;-73
2022/03/28 11:37:31;;;;;;;4.90;4.45;;;19.10;46.50;;;;;;5038022;28;20521;-74
2022/03/28 11:40:02;;;;;;;4.65;4.10;;;19.20;46.50;;;;;;5057957;28;20051;-70
2022/03/28 11:42:30;;;;;;;5.60;4.00;;;19.30;46.30;;;;;;5052839;28;20040;-69
2022/03/28 11:44:57;;;;;;;9.48;4.57;;;19.30;46.20;;;;;;5060772;28;20031;-69
2022/03/28 11:47:23;;;;;;;8.68;4.93;;;19.40;46.10;;;;;;5054853;28;20135;-70
2022/03/28 11:49:58;;;;;;;14.20;4.80;;;19.50;45.10;;;;;;5032460;28;20044;-70
2022/03/28 11:52:26;;;;;;;7.32;4.55;;;19.60;44.90;;;;;;5053074;28;20455;-69
2022/03/28 11:54:55;;;;;;;6.38;4.43;;;19.70;44.60;;;;;;5060083;28;20629;-70
2022/03/28 12:00:24;;;;;;;12.70;9.55;;;20.00;44.00;;;;;;5051349;28;20089;-70
2022/03/28 12:02:57;;;;;;;7.75;6.30;;;19.80;43.80;;;;;;5058627;28;20485;-70
2022/03/28 12:05:32;;;;;;;42.75;36.70;;;19.50;43.60;;;;;;5055265;28;20098;-70
2022/03/28 12:07:59;;;;;;;10.98;7.18;;;19.50;44.00;;;;;;5053095;28;20060;-70
2022/03/28 12:10:32;;;;;;;10.90;7.28;;;19.60;44.10;;;;;;5054449;28;20107;-70
2022/03/28 12:12:59;;;;;;;15.30;13.57;;;19.60;43.60;;;;;;5052209;28;20041;-70
2022/03/28 12:15:40;;;;;;;7.53;4.53;;;19.60;43.70;;;;;;5042016;28;20056;-70
2022/03/28 12:18:07;;;;;;;17.25;15.10;;;19.60;44.60;;;;;;5053264;28;20028;-70
2022/03/28 12:20:37;;;;;;;6.60;4.82;;;19.70;43.70;;;;;;5056372;28;20052;-70
2022/03/28 12:23:04;;;;;;;7.65;4.47;;;19.80;44.00;;;;;;5059046;28;20184;-70
2022/03/28 12:25:50;;;;;;;30.00;5.35;;;19.80;43.10;;;;;;5060767;28;20370;-70
2022/03/28 12:28:24;;;;;;;5.57;4.65;;;19.80;43.20;;;;;;5053065;28;20047;-70
2022/03/28 12:30:58;;;;;;;10.18;4.78;;;19.80;42.90;;;;;;5057488;28;20039;-71
2022/03/28 12:33:30;;;;;;;5.13;4.55;;;20.00;43.10;;;;;;5048510;28;20052;-71
2022/03/28 12:36:03;;;;;;;8.25;4.68;;;20.00;42.50;;;;;;5055656;28;20029;-70
2022/03/28 12:38:31;;;;;;;7.30;5.03;;;19.80;42.70;;;;;;5056257;28;20094;-71
2022/03/28 12:41:00;;;;;;;8.68;4.65;;;19.80;42.40;;;;;;5046121;28;20494;-71
2022/03/28 12:43:27;;;;;;;11.40;9.25;;;19.80;42.90;;;;;;5047015;28;20071;-70
2022/03/28 12:45:58;;;;;;;12.50;6.95;;;19.90;42.70;;;;;;5027352;28;20048;-71
2022/03/28 12:48:37;;;;;;;11.80;7.03;;;19.90;42.30;;;;;;5038773;28;20043;-71
2022/03/28 12:51:05;;;;;;;6.13;5.53;;;20.00;43.00;;;;;;5034162;28;20033;-71
2022/03/28 12:53:32;;;;;;;7.72;4.57;;;20.10;42.50;;;;;;5049313;28;20049;-71
2022/03/28 12:56:21;;;;;;;7.30;4.43;;;20.30;42.90;;;;;;5050508;28;20746;-71